sensor_id;sensor_type;location;lat;lon;timestamp;temperature;humidity
44843;DHT22;31884;52.538;13.820;2023-03-26T00:01:00;8.40;99.90
44843;DHT22;31884;52.538;13.820;2023-03-26T00:03:26;8.40;99.90
44843;DHT22;31884;52.538;13.820;2023-03-26T00:08:28;8.40;99.90
44843;DHT22;31884;52.538;13.820;2023-03-26T00:10:53;8.40;99.90
44843;DHT22;31884;52.538;13.820;2023-03-26T00:13:19;8.50;99.90
44843;DHT22;31884;52.538;13.820;2023-03-26T00:15:45;8.50;99.90
44843;DHT22;31884;52.538;13.820;2023-03-26T00:18:10;8.50;99.90
44843;DHT22;31884;52.538;13.820;2023-03-26T00:20:36;8.40;99.90
44843;DHT22;31884;52.538;13.820;2023-03-26T00:23:03;8.40;99.90
44843;DHT22;31884;52.538;13.820;2023-03-26T00:25:28;8.40;99.90
44843;DHT22;31884;52.538;13.820;2023-03-26T00:27:56;8.40;99.90
44843;DHT22;31884;52.538;13.820;2023-03-26T00:30:21;8.40;99.90
44843;DHT22;31884;52.538;13.820;2023-03-26T00:32:47;8.40;99.90
44843;DHT22;31884;52.538;13.820;2023-03-26T00:35:12;8.40;99.90
44843;DHT22;31884;52.538;13.820;2023-03-26T00:37:38;8.40;99.90
44843;DHT22;31884;52.538;13.820;2023-03-26T00:40:08;8.40;99.90
44843;DHT22;31884;52.538;13.820;2023-03-26T00:42:35;8.40;99.90
44843;DHT22;31884;52.538;13.820;2023-03-26T00:45:03;8.40;99.90
44843;DHT22;31884;52.538;13.820;2023-03-26T00:47:28;8.30;99.90
44843;DHT22;31884;52.538;13.820;2023-03-26T00:49:55;8.30;99.90
44843;DHT22;31884;52.538;13.820;2023-03-26T00:52:21;8.30;99.90
44843;DHT22;31884;52.538;13.820;2023-03-26T00:54:50;8.30;99.90
44843;DHT22;31884;52.538;13.820;2023-03-26T00:57:16;8.30;99.90
44843;DHT22;31884;52.538;13.820;2023-03-26T00:59:42;8.30;99.90
44843;DHT22;31884;52.538;13.820;2023-03-26T01:02:12;8.30;99.90
44843;DHT22;31884;52.538;13.820;2023-03-26T01:04:44;8.30;99.90
44843;DHT22;31884;52.538;13.820;2023-03-26T01:07:11;8.30;99.90
44843;DHT22;31884;52.538;13.820;2023-03-26T01:09:43;8.30;99.90
44843;DHT22;31884;52.538;13.820;2023-03-26T01:12:16;8.30;99.90
44843;DHT22;31884;52.538;13.820;2023-03-26T01:14:43;8.30;99.90
44843;DHT22;31884;52.538;13.820;2023-03-26T01:17:10;8.30;99.90
44843;DHT22;31884;52.538;13.820;2023-03-26T01:22:10;8.40;99.90
44843;DHT22;31884;52.538;13.820;2023-03-26T01:24:38;8.40;99.90
44843;DHT22;31884;52.538;13.820;2023-03-26T01:27:08;8.40;99.90
44843;DHT22;31884;52.538;13.820;2023-03-26T01:29:41;8.40;99.90
44843;DHT22;31884;52.538;13.820;2023-03-26T01:32:20;8.40;99.90
44843;DHT22;31884;52.538;13.820;2023-03-26T01:35:23;8.40;99.90
44843;DHT22;31884;52.538;13.820;2023-03-26T01:38:10;8.40;99.90
44843;DHT22;31884;52.538;13.820;2023-03-26T01:40:45;8.40;99.90
44843;DHT22;31884;52.538;13.820;2023-03-26T01:43:42;8.40;99.90
44843;DHT22;31884;52.538;13.820;2023-03-26T01:46:12;8.40;99.90
44843;DHT22;31884;52.538;13.820;2023-03-26T01:48:41;8.40;99.90
44843;DHT22;31884;52.538;13.820;2023-03-26T01:51:08;8.40;99.90
44843;DHT22;31884;52.538;13.820;2023-03-26T01:53:37;8.40;99.90
44843;DHT22;31884;52.538;13.820;2023-03-26T01:59:03;8.40;99.90
44843;DHT22;31884;52.538;13.820;2023-03-26T02:01:37;8.40;99.90
44843;DHT22;31884;52.538;13.820;2023-03-26T02:04:20;8.40;99.90
44843;DHT22;31884;52.538;13.820;2023-03-26T02:07:07;8.40;99.90
44843;DHT22;31884;52.538;13.820;2023-03-26T02:09:42;8.40;99.90
44843;DHT22;31884;52.538;13.820;2023-03-26T02:12:10;8.30;99.90
44843;DHT22;31884;52.538;13.820;2023-03-26T02:14:37;8.40;99.90
44843;DHT22;31884;52.538;13.820;2023-03-26T02:17:03;8.40;99.90
44843;DHT22;31884;52.538;13.820;2023-03-26T02:19:28;8.30;99.90
44843;DHT22;31884;52.538;13.820;2023-03-26T02:21:54;8.30;99.90
44843;DHT22;31884;52.538;13.820;2023-03-26T02:24:24;8.30;99.90
44843;DHT22;31884;52.538;13.820;2023-03-26T02:26:50;8.30;99.90
44843;DHT22;31884;52.538;13.820;2023-03-26T02:29:16;8.30;99.90
44843;DHT22;31884;52.538;13.820;2023-03-26T02:31:46;8.20;99.90
44843;DHT22;31884;52.538;13.820;2023-03-26T02:34:13;8.20;99.90
44843;DHT22;31884;52.538;13.820;2023-03-26T02:36:39;8.20;99.90
44843;DHT22;31884;52.538;13.820;2023-03-26T02:39:08;8.20;99.90
44843;DHT22;31884;52.538;13.820;2023-03-26T02:41:35;8.20;99.90
44843;DHT22;31884;52.538;13.820;2023-03-26T02:44:01;8.20;99.90
44843;DHT22;31884;52.538;13.820;2023-03-26T02:46:27;8.20;99.90
44843;DHT22;31884;52.538;13.820;2023-03-26T02:48:52;8.10;99.90
44843;DHT22;31884;52.538;13.820;2023-03-26T02:51:18;8.00;99.90
44843;DHT22;31884;52.538;13.820;2023-03-26T02:53:43;8.00;99.90
44843;DHT22;31884;52.538;13.820;2023-03-26T02:56:10;7.90;99.90
44843;DHT22;31884;52.538;13.820;2023-03-26T02:58:37;7.90;99.90
44843;DHT22;31884;52.538;13.820;2023-03-26T03:01:02;7.80;99.90
44843;DHT22;31884;52.538;13.820;2023-03-26T03:03:28;7.70;99.90
44843;DHT22;31884;52.538;13.820;2023-03-26T03:05:55;7.70;99.90
44843;DHT22;31884;52.538;13.820;2023-03-26T03:08:23;7.70;99.90
44843;DHT22;31884;52.538;13.820;2023-03-26T03:11:00;7.70;99.90
44843;DHT22;31884;52.538;13.820;2023-03-26T03:13:26;7.70;99.90
44843;DHT22;31884;52.538;13.820;2023-03-26T03:15:52;7.70;99.90
44843;DHT22;31884;52.538;13.820;2023-03-26T03:18:17;7.80;99.90
44843;DHT22;31884;52.538;13.820;2023-03-26T03:20:43;7.80;99.90
44843;DHT22;31884;52.538;13.820;2023-03-26T03:23:09;7.80;99.90
44843;DHT22;31884;52.538;13.820;2023-03-26T03:25:35;7.80;99.90
44843;DHT22;31884;52.538;13.820;2023-03-26T03:28:00;7.80;99.90
44843;DHT22;31884;52.538;13.820;2023-03-26T03:30:26;7.90;99.90
44843;DHT22;31884;52.538;13.820;2023-03-26T03:32:52;7.90;99.90
44843;DHT22;31884;52.538;13.820;2023-03-26T03:35:17;7.90;99.90
44843;DHT22;31884;52.538;13.820;2023-03-26T03:37:43;7.90;99.90
44843;DHT22;31884;52.538;13.820;2023-03-26T03:40:09;8.00;99.90
44843;DHT22;31884;52.538;13.820;2023-03-26T03:42:37;8.00;99.90
44843;DHT22;31884;52.538;13.820;2023-03-26T03:45:04;8.00;99.90
44843;DHT22;31884;52.538;13.820;2023-03-26T03:47:30;8.00;99.90
44843;DHT22;31884;52.538;13.820;2023-03-26T03:49:56;8.00;99.90
44843;DHT22;31884;52.538;13.820;2023-03-26T03:52:24;8.10;99.90
44843;DHT22;31884;52.538;13.820;2023-03-26T03:54:50;8.10;99.90
44843;DHT22;31884;52.538;13.820;2023-03-26T03:57:16;8.10;99.90
44843;DHT22;31884;52.538;13.820;2023-03-26T03:59:43;8.10;99.90
44843;DHT22;31884;52.538;13.820;2023-03-26T04:02:09;8.10;99.90
44843;DHT22;31884;52.538;13.820;2023-03-26T04:04:35;8.20;99.90
44843;DHT22;31884;52.538;13.820;2023-03-26T04:07:02;8.20;99.90
44843;DHT22;31884;52.538;13.820;2023-03-26T04:09:28;8.20;99.90
44843;DHT22;31884;52.538;13.820;2023-03-26T04:11:53;8.20;99.90
44843;DHT22;31884;52.538;13.820;2023-03-26T04:14:19;8.30;99.90
44843;DHT22;31884;52.538;13.820;2023-03-26T04:16:45;8.30;99.90
44843;DHT22;31884;52.538;13.820;2023-03-26T04:19:13;8.30;99.90
44843;DHT22;31884;52.538;13.820;2023-03-26T04:21:39;8.30;99.90
44843;DHT22;31884;52.538;13.820;2023-03-26T04:24:07;8.30;99.90
44843;DHT22;31884;52.538;13.820;2023-03-26T04:26:33;8.30;99.90
44843;DHT22;31884;52.538;13.820;2023-03-26T04:29:02;8.30;99.90
44843;DHT22;31884;52.538;13.820;2023-03-26T04:31:28;8.30;99.90
44843;DHT22;31884;52.538;13.820;2023-03-26T04:33:56;8.30;99.90
44843;DHT22;31884;52.538;13.820;2023-03-26T04:36:28;8.30;99.90
44843;DHT22;31884;52.538;13.820;2023-03-26T04:38:55;8.30;99.90
44843;DHT22;31884;52.538;13.820;2023-03-26T04:41:22;8.30;99.90
44843;DHT22;31884;52.538;13.820;2023-03-26T04:43:51;8.30;99.90
44843;DHT22;31884;52.538;13.820;2023-03-26T04:46:16;8.30;99.90
44843;DHT22;31884;52.538;13.820;2023-03-26T04:48:43;8.30;99.90
44843;DHT22;31884;52.538;13.820;2023-03-26T04:51:10;8.30;99.90
44843;DHT22;31884;52.538;13.820;2023-03-26T04:53:43;8.30;99.90
44843;DHT22;31884;52.538;13.820;2023-03-26T04:58:45;8.30;99.90
44843;DHT22;31884;52.538;13.820;2023-03-26T05:01:12;8.30;99.90
44843;DHT22;31884;52.538;13.820;2023-03-26T05:03:38;8.30;99.90
44843;DHT22;31884;52.538;13.820;2023-03-26T05:06:05;8.30;99.90
44843;DHT22;31884;52.538;13.820;2023-03-26T05:08:31;8.30;99.90
44843;DHT22;31884;52.538;13.820;2023-03-26T05:10:56;8.30;99.90
44843;DHT22;31884;52.538;13.820;2023-03-26T05:13:22;8.30;99.90
44843;DHT22;31884;52.538;13.820;2023-03-26T05:15:48;8.30;99.90
44843;DHT22;31884;52.538;13.820;2023-03-26T05:18:14;8.40;99.90
44843;DHT22;31884;52.538;13.820;2023-03-26T05:20:40;8.30;99.90
44843;DHT22;31884;52.538;13.820;2023-03-26T05:23:06;8.40;99.90
44843;DHT22;31884;52.538;13.820;2023-03-26T05:25:32;8.40;99.90
44843;DHT22;31884;52.538;13.820;2023-03-26T05:27:59;8.40;99.90
44843;DHT22;31884;52.538;13.820;2023-03-26T05:30:25;8.50;99.90
44843;DHT22;31884;52.538;13.820;2023-03-26T05:32:50;8.50;99.90
44843;DHT22;31884;52.538;13.820;2023-03-26T05:35:16;8.50;99.90
44843;DHT22;31884;52.538;13.820;2023-03-26T05:37:43;8.50;99.90
44843;DHT22;31884;52.538;13.820;2023-03-26T05:40:10;8.50;99.90
44843;DHT22;31884;52.538;13.820;2023-03-26T05:42:37;8.60;99.90
44843;DHT22;31884;52.538;13.820;2023-03-26T05:45:06;8.60;99.90
44843;DHT22;31884;52.538;13.820;2023-03-26T05:47:32;8.70;99.90
44843;DHT22;31884;52.538;13.820;2023-03-26T05:49:57;8.70;99.90
44843;DHT22;31884;52.538;13.820;2023-03-26T05:52:23;8.80;99.90
44843;DHT22;31884;52.538;13.820;2023-03-26T05:54:49;8.80;99.90
44843;DHT22;31884;52.538;13.820;2023-03-26T05:57:14;8.80;99.90
44843;DHT22;31884;52.538;13.820;2023-03-26T05:59:40;8.90;99.90
44843;DHT22;31884;52.538;13.820;2023-03-26T06:02:07;8.90;99.90
44843;DHT22;31884;52.538;13.820;2023-03-26T06:04:33;8.90;99.90
44843;DHT22;31884;52.538;13.820;2023-03-26T06:06:58;8.90;99.90
44843;DHT22;31884;52.538;13.820;2023-03-26T06:09:26;8.90;99.90
44843;DHT22;31884;52.538;13.820;2023-03-26T06:11:51;8.90;99.90
44843;DHT22;31884;52.538;13.820;2023-03-26T06:14:17;8.90;99.90
44843;DHT22;31884;52.538;13.820;2023-03-26T06:16:42;8.90;99.90
44843;DHT22;31884;52.538;13.820;2023-03-26T06:19:08;9.00;99.90
44843;DHT22;31884;52.538;13.820;2023-03-26T06:21:33;9.00;99.90
44843;DHT22;31884;52.538;13.820;2023-03-26T06:23:59;8.90;99.90
44843;DHT22;31884;52.538;13.820;2023-03-26T06:26:24;9.00;99.90
44843;DHT22;31884;52.538;13.820;2023-03-26T06:28:50;9.10;99.90
44843;DHT22;31884;52.538;13.820;2023-03-26T06:31:15;9.20;99.90
44843;DHT22;31884;52.538;13.820;2023-03-26T06:33:43;9.30;99.90
44843;DHT22;31884;52.538;13.820;2023-03-26T06:36:09;9.40;99.90
44843;DHT22;31884;52.538;13.820;2023-03-26T06:38:34;9.50;99.90
44843;DHT22;31884;52.538;13.820;2023-03-26T06:41:04;9.50;99.00
44843;DHT22;31884;52.538;13.820;2023-03-26T06:43:30;9.60;96.40
44843;DHT22;31884;52.538;13.820;2023-03-26T06:45:59;9.50;96.00
44843;DHT22;31884;52.538;13.820;2023-03-26T06:48:24;9.50;95.70
44843;DHT22;31884;52.538;13.820;2023-03-26T06:50:50;9.60;95.30
44843;DHT22;31884;52.538;13.820;2023-03-26T06:53:15;9.60;93.00
44843;DHT22;31884;52.538;13.820;2023-03-26T06:55:41;9.50;94.50
44843;DHT22;31884;52.538;13.820;2023-03-26T06:58:08;9.40;94.60
44843;DHT22;31884;52.538;13.820;2023-03-26T07:00:35;9.40;96.00
44843;DHT22;31884;52.538;13.820;2023-03-26T07:03:05;9.30;96.20
44843;DHT22;31884;52.538;13.820;2023-03-26T07:05:30;9.30;95.80
44843;DHT22;31884;52.538;13.820;2023-03-26T07:07:56;9.30;95.50
44843;DHT22;31884;52.538;13.820;2023-03-26T07:10:22;9.30;96.10
44843;DHT22;31884;52.538;13.820;2023-03-26T07:12:47;9.30;95.80
44843;DHT22;31884;52.538;13.820;2023-03-26T07:15:13;9.40;95.80
44843;DHT22;31884;52.538;13.820;2023-03-26T07:17:39;9.50;96.00
44843;DHT22;31884;52.538;13.820;2023-03-26T07:20:06;9.70;95.50
44843;DHT22;31884;52.538;13.820;2023-03-26T07:22:33;9.90;94.00
44843;DHT22;31884;52.538;13.820;2023-03-26T07:24:59;10.60;92.10
44843;DHT22;31884;52.538;13.820;2023-03-26T07:30:52;11.40;90.50
44843;DHT22;31884;52.538;13.820;2023-03-26T07:33:30;12.00;82.90
44843;DHT22;31884;52.538;13.820;2023-03-26T07:38:46;13.10;76.60
44843;DHT22;31884;52.538;13.820;2023-03-26T07:41:28;13.30;76.20
44843;DHT22;31884;52.538;13.820;2023-03-26T07:44:19;13.70;76.40
44843;DHT22;31884;52.538;13.820;2023-03-26T07:46:49;14.60;69.40
44843;DHT22;31884;52.538;13.820;2023-03-26T07:49:18;15.30;70.00
44843;DHT22;31884;52.538;13.820;2023-03-26T07:51:45;15.40;64.90
44843;DHT22;31884;52.538;13.820;2023-03-26T07:54:11;15.40;68.80
44843;DHT22;31884;52.538;13.820;2023-03-26T07:57:39;15.40;65.70
44843;DHT22;31884;52.538;13.820;2023-03-26T07:59:51;15.50;57.00
44843;DHT22;31884;52.538;13.820;2023-03-26T08:02:43;15.90;55.20
44843;DHT22;31884;52.538;13.820;2023-03-26T08:05:15;16.00;46.60
44843;DHT22;31884;52.538;13.820;2023-03-26T08:07:52;16.00;59.10
44843;DHT22;31884;52.538;13.820;2023-03-26T08:11:02;15.60;48.20
44843;DHT22;31884;52.538;13.820;2023-03-26T08:13:42;15.20;45.50
44843;DHT22;31884;52.538;13.820;2023-03-26T08:16:27;14.90;51.20
44843;DHT22;31884;52.538;13.820;2023-03-26T08:19:25;14.80;49.00
44843;DHT22;31884;52.538;13.820;2023-03-26T08:21:56;14.80;47.50
44843;DHT22;31884;52.538;13.820;2023-03-26T08:27:22;14.60;35.30
44843;DHT22;31884;52.538;13.820;2023-03-26T08:29:59;14.40;43.50
44843;DHT22;31884;52.538;13.820;2023-03-26T08:32:29;14.40;44.10
44843;DHT22;31884;52.538;13.820;2023-03-26T08:34:55;14.30;43.40
44843;DHT22;31884;52.538;13.820;2023-03-26T08:37:22;14.10;41.90
44843;DHT22;31884;52.538;13.820;2023-03-26T08:39:47;13.90;38.60
44843;DHT22;31884;52.538;13.820;2023-03-26T08:42:30;13.60;44.20
44843;DHT22;31884;52.538;13.820;2023-03-26T08:45:19;13.50;46.50
44843;DHT22;31884;52.538;13.820;2023-03-26T08:56:05;13.80;50.10
44843;DHT22;31884;52.538;13.820;2023-03-26T09:02:09;13.50;49.50
44843;DHT22;31884;52.538;13.820;2023-03-26T09:07:53;13.10;51.70
44843;DHT22;31884;52.538;13.820;2023-03-26T09:14:03;13.00;52.20
44843;DHT22;31884;52.538;13.820;2023-03-26T09:25:17;13.10;52.70
44843;DHT22;31884;52.538;13.820;2023-03-26T09:28:12;13.10;53.00
44843;DHT22;31884;52.538;13.820;2023-03-26T09:30:58;13.00;52.50
44843;DHT22;31884;52.538;13.820;2023-03-26T09:33:31;12.90;54.00
44843;DHT22;31884;52.538;13.820;2023-03-26T09:36:18;13.00;52.30
44843;DHT22;31884;52.538;13.820;2023-03-26T09:41:14;13.00;53.10
44843;DHT22;31884;52.538;13.820;2023-03-26T09:44:09;12.90;53.70
44843;DHT22;31884;52.538;13.820;2023-03-26T09:47:03;12.90;54.10
44843;DHT22;31884;52.538;13.820;2023-03-26T09:58:44;12.10;56.30
44843;DHT22;31884;52.538;13.820;2023-03-26T10:31:42;10.90;77.60
44843;DHT22;31884;52.538;13.820;2023-03-26T10:36:50;10.90;80.90
44843;DHT22;31884;52.538;13.820;2023-03-26T10:42:23;11.10;84.10
44843;DHT22;31884;52.538;13.820;2023-03-26T10:48:17;11.50;84.50
44843;DHT22;31884;52.538;13.820;2023-03-26T10:51:07;11.70;80.50
44843;DHT22;31884;52.538;13.820;2023-03-26T10:53:50;12.00;81.10
44843;DHT22;31884;52.538;13.820;2023-03-26T10:56:22;12.20;79.10
44843;DHT22;31884;52.538;13.820;2023-03-26T10:58:49;12.30;78.40
44843;DHT22;31884;52.538;13.820;2023-03-26T11:04:10;12.70;75.80
44843;DHT22;31884;52.538;13.820;2023-03-26T11:07:01;12.80;74.90
44843;DHT22;31884;52.538;13.820;2023-03-26T11:09:30;12.80;72.90
44843;DHT22;31884;52.538;13.820;2023-03-26T11:15:23;13.00;71.20
44843;DHT22;31884;52.538;13.820;2023-03-26T11:17:56;13.20;70.10
44843;DHT22;31884;52.538;13.820;2023-03-26T11:20:36;13.30;69.90
44843;DHT22;31884;52.538;13.820;2023-03-26T11:26:12;13.30;69.90
44843;DHT22;31884;52.538;13.820;2023-03-26T11:29:11;13.30;68.80
44843;DHT22;31884;52.538;13.820;2023-03-26T11:31:55;13.20;69.60
44843;DHT22;31884;52.538;13.820;2023-03-26T11:37:38;13.30;68.80
44843;DHT22;31884;52.538;13.820;2023-03-26T11:40:36;13.40;68.70
44843;DHT22;31884;52.538;13.820;2023-03-26T11:43:06;13.50;65.40
44843;DHT22;31884;52.538;13.820;2023-03-26T11:45:34;13.60;67.20
44843;DHT22;31884;52.538;13.820;2023-03-26T11:50:40;13.70;66.20
44843;DHT22;31884;52.538;13.820;2023-03-26T11:53:15;13.60;66.40
44843;DHT22;31884;52.538;13.820;2023-03-26T11:56:03;13.70;63.40
44843;DHT22;31884;52.538;13.820;2023-03-26T11:58:34;13.60;63.20
44843;DHT22;31884;52.538;13.820;2023-03-26T12:01:15;13.70;64.90
44843;DHT22;31884;52.538;13.820;2023-03-26T12:03:41;13.70;64.60
44843;DHT22;31884;52.538;13.820;2023-03-26T12:06:21;13.70;65.30
44843;DHT22;31884;52.538;13.820;2023-03-26T12:08:49;13.70;64.50
44843;DHT22;31884;52.538;13.820;2023-03-26T12:11:17;13.70;64.50
44843;DHT22;31884;52.538;13.820;2023-03-26T12:13:52;13.70;64.30
44843;DHT22;31884;52.538;13.820;2023-03-26T12:16:20;13.80;63.60
44843;DHT22;31884;52.538;13.820;2023-03-26T12:19:16;13.70;62.50
44843;DHT22;31884;52.538;13.820;2023-03-26T12:21:49;13.40;61.60
44843;DHT22;31884;52.538;13.820;2023-03-26T12:24:33;13.20;62.80
44843;DHT22;31884;52.538;13.820;2023-03-26T12:29:58;13.20;60.50
44843;DHT22;31884;52.538;13.820;2023-03-26T12:32:24;13.40;62.00
44843;DHT22;31884;52.538;13.820;2023-03-26T12:34:56;13.50;61.20
44843;DHT22;31884;52.538;13.820;2023-03-26T12:37:37;13.50;60.30
44843;DHT22;31884;52.538;13.820;2023-03-26T12:40:33;13.60;60.00
44843;DHT22;31884;52.538;13.820;2023-03-26T12:43:03;13.50;55.90
44843;DHT22;31884;52.538;13.820;2023-03-26T12:45:41;13.40;58.40
44843;DHT22;31884;52.538;13.820;2023-03-26T12:48:09;13.30;57.70
44843;DHT22;31884;52.538;13.820;2023-03-26T12:53:47;13.30;56.40
44843;DHT22;31884;52.538;13.820;2023-03-26T13:01:51;13.20;55.80
44843;DHT22;31884;52.538;13.820;2023-03-26T13:04:34;13.30;55.00
44843;DHT22;31884;52.538;13.820;2023-03-26T13:18:54;13.50;50.80
44843;DHT22;31884;52.538;13.820;2023-03-26T13:21:40;13.50;52.00
44843;DHT22;31884;52.538;13.820;2023-03-26T13:27:07;13.60;51.40
44843;DHT22;31884;52.538;13.820;2023-03-26T13:37:55;13.70;49.80
44843;DHT22;31884;52.538;13.820;2023-03-26T13:46:02;13.70;47.60
44843;DHT22;31884;52.538;13.820;2023-03-26T13:48:50;13.80;47.00
44843;DHT22;31884;52.538;13.820;2023-03-26T13:57:10;13.90;45.80
44843;DHT22;31884;52.538;13.820;2023-03-26T13:59:43;14.10;45.20
44843;DHT22;31884;52.538;13.820;2023-03-26T14:02:32;14.10;45.80
44843;DHT22;31884;52.538;13.820;2023-03-26T14:07:42;14.10;45.70
44843;DHT22;31884;52.538;13.820;2023-03-26T14:10:24;14.10;45.50
44843;DHT22;31884;52.538;13.820;2023-03-26T14:12:56;14.10;43.80
44843;DHT22;31884;52.538;13.820;2023-03-26T14:15:46;14.00;43.60
44843;DHT22;31884;52.538;13.820;2023-03-26T14:18:26;14.00;44.10
44843;DHT22;31884;52.538;13.820;2023-03-26T14:23:47;13.90;43.40
44843;DHT22;31884;52.538;13.820;2023-03-26T14:37:19;13.70;41.30
44843;DHT22;31884;52.538;13.820;2023-03-26T14:39:51;13.70;39.00
44843;DHT22;31884;52.538;13.820;2023-03-26T14:42:35;13.60;41.60
44843;DHT22;31884;52.538;13.820;2023-03-26T14:54:03;13.20;42.20
44843;DHT22;31884;52.538;13.820;2023-03-26T14:56:47;13.20;43.20
44843;DHT22;31884;52.538;13.820;2023-03-26T15:10:51;12.90;41.50
44843;DHT22;31884;52.538;13.820;2023-03-26T15:13:42;12.80;42.30
44843;DHT22;31884;52.538;13.820;2023-03-26T15:19:20;12.80;42.70
44843;DHT22;31884;52.538;13.820;2023-03-26T15:22:20;12.70;42.40
44843;DHT22;31884;52.538;13.820;2023-03-26T15:25:16;12.60;42.70
44843;DHT22;31884;52.538;13.820;2023-03-26T15:31:17;12.40;42.80
44843;DHT22;31884;52.538;13.820;2023-03-26T15:34:04;12.30;42.70
44843;DHT22;31884;52.538;13.820;2023-03-26T15:39:56;12.10;43.70
44843;DHT22;31884;52.538;13.820;2023-03-26T15:42:51;12.10;44.30
44843;DHT22;31884;52.538;13.820;2023-03-26T15:47:57;11.90;45.60
44843;DHT22;31884;52.538;13.820;2023-03-26T15:58:51;11.70;46.00
44843;DHT22;31884;52.538;13.820;2023-03-26T16:04:17;11.60;46.50
44843;DHT22;31884;52.538;13.820;2023-03-26T16:06:59;11.60;46.80
44843;DHT22;31884;52.538;13.820;2023-03-26T16:09:54;11.50;46.90
44843;DHT22;31884;52.538;13.820;2023-03-26T16:12:31;11.50;47.00
44843;DHT22;31884;52.538;13.820;2023-03-26T16:20:50;11.30;47.20
44843;DHT22;31884;52.538;13.820;2023-03-26T16:26:25;11.10;47.80
44843;DHT22;31884;52.538;13.820;2023-03-26T16:31:18;11.00;48.70
44843;DHT22;31884;52.538;13.820;2023-03-26T16:34:19;10.90;49.10
44843;DHT22;31884;52.538;13.820;2023-03-26T16:36:47;10.90;49.90
44843;DHT22;31884;52.538;13.820;2023-03-26T16:39:18;10.80;49.70
44843;DHT22;31884;52.538;13.820;2023-03-26T16:42:00;10.80;50.20
44843;DHT22;31884;52.538;13.820;2023-03-26T16:44:49;10.70;50.30
44843;DHT22;31884;52.538;13.820;2023-03-26T16:47:35;10.70;50.40
44843;DHT22;31884;52.538;13.820;2023-03-26T16:52:49;10.60;50.90
44843;DHT22;31884;52.538;13.820;2023-03-26T16:55:33;10.60;50.70
44843;DHT22;31884;52.538;13.820;2023-03-26T16:58:08;10.60;50.90
44843;DHT22;31884;52.538;13.820;2023-03-26T17:00:40;10.60;50.80
44843;DHT22;31884;52.538;13.820;2023-03-26T17:03:22;10.50;51.30
44843;DHT22;31884;52.538;13.820;2023-03-26T17:11:48;10.50;51.60
44843;DHT22;31884;52.538;13.820;2023-03-26T17:17:30;10.50;52.10
44843;DHT22;31884;52.538;13.820;2023-03-26T17:20:10;10.50;52.60
44843;DHT22;31884;52.538;13.820;2023-03-26T17:22:45;10.50;52.60
44843;DHT22;31884;52.538;13.820;2023-03-26T17:25:24;10.40;52.90
44843;DHT22;31884;52.538;13.820;2023-03-26T17:27:54;10.40;53.30
44843;DHT22;31884;52.538;13.820;2023-03-26T17:41:09;10.30;54.70
44843;DHT22;31884;52.538;13.820;2023-03-26T17:43:47;10.30;54.60
44843;DHT22;31884;52.538;13.820;2023-03-26T17:46:36;10.30;54.90
44843;DHT22;31884;52.538;13.820;2023-03-26T17:49:20;10.30;55.20
44843;DHT22;31884;52.538;13.820;2023-03-26T17:51:59;10.20;55.40
44843;DHT22;31884;52.538;13.820;2023-03-26T17:54:33;10.20;56.20
44843;DHT22;31884;52.538;13.820;2023-03-26T17:57:10;10.10;57.40
44843;DHT22;31884;52.538;13.820;2023-03-26T17:59:39;10.00;57.40
44843;DHT22;31884;52.538;13.820;2023-03-26T18:02:13;9.90;57.90
44843;DHT22;31884;52.538;13.820;2023-03-26T18:04:42;9.90;58.20
44843;DHT22;31884;52.538;13.820;2023-03-26T18:07:42;9.80;58.60
44843;DHT22;31884;52.538;13.820;2023-03-26T18:13:16;9.80;58.80
44843;DHT22;31884;52.538;13.820;2023-03-26T18:20:45;9.80;59.30
44843;DHT22;31884;52.538;13.820;2023-03-26T18:25:57;9.80;59.60
44843;DHT22;31884;52.538;13.820;2023-03-26T18:28:33;9.70;59.90
44843;DHT22;31884;52.538;13.820;2023-03-26T18:31:08;9.70;60.30
44843;DHT22;31884;52.538;13.820;2023-03-26T18:33:41;9.60;60.40
44843;DHT22;31884;52.538;13.820;2023-03-26T18:36:09;9.60;60.90
44843;DHT22;31884;52.538;13.820;2023-03-26T18:38:35;9.60;60.60
44843;DHT22;31884;52.538;13.820;2023-03-26T18:41:01;9.50;61.30
44843;DHT22;31884;52.538;13.820;2023-03-26T18:43:27;9.50;61.40
44843;DHT22;31884;52.538;13.820;2023-03-26T18:45:53;9.50;61.30
44843;DHT22;31884;52.538;13.820;2023-03-26T18:48:24;9.40;61.30
44843;DHT22;31884;52.538;13.820;2023-03-26T18:50:52;9.40;61.30
44843;DHT22;31884;52.538;13.820;2023-03-26T18:53:21;9.30;61.40
44843;DHT22;31884;52.538;13.820;2023-03-26T18:55:48;9.30;61.20
44843;DHT22;31884;52.538;13.820;2023-03-26T18:58:32;9.20;61.10
44843;DHT22;31884;52.538;13.820;2023-03-26T19:01:04;9.20;60.80
44843;DHT22;31884;52.538;13.820;2023-03-26T19:03:33;9.10;59.40
44843;DHT22;31884;52.538;13.820;2023-03-26T19:06:01;9.10;59.50
44843;DHT22;31884;52.538;13.820;2023-03-26T19:08:29;9.10;59.70
44843;DHT22;31884;52.538;13.820;2023-03-26T19:10:55;9.00;58.10
44843;DHT22;31884;52.538;13.820;2023-03-26T19:13:21;9.00;58.70
44843;DHT22;31884;52.538;13.820;2023-03-26T19:15:50;8.90;57.50
44843;DHT22;31884;52.538;13.820;2023-03-26T19:18:22;8.70;57.40
44843;DHT22;31884;52.538;13.820;2023-03-26T19:20:52;8.60;58.00
44843;DHT22;31884;52.538;13.820;2023-03-26T19:23:24;8.60;58.40
44843;DHT22;31884;52.538;13.820;2023-03-26T19:25:54;8.50;58.50
44843;DHT22;31884;52.538;13.820;2023-03-26T19:28:26;8.40;58.30
44843;DHT22;31884;52.538;13.820;2023-03-26T19:30:54;8.40;58.00
44843;DHT22;31884;52.538;13.820;2023-03-26T19:33:22;8.30;58.70
44843;DHT22;31884;52.538;13.820;2023-03-26T19:35:53;8.20;58.80
44843;DHT22;31884;52.538;13.820;2023-03-26T19:38:27;8.20;59.20
44843;DHT22;31884;52.538;13.820;2023-03-26T19:40:56;8.10;59.70
44843;DHT22;31884;52.538;13.820;2023-03-26T19:43:23;8.10;60.00
44843;DHT22;31884;52.538;13.820;2023-03-26T19:45:50;7.90;60.00
44843;DHT22;31884;52.538;13.820;2023-03-26T19:48:18;7.90;60.90
44843;DHT22;31884;52.538;13.820;2023-03-26T19:51:03;7.80;60.10
44843;DHT22;31884;52.538;13.820;2023-03-26T19:53:33;7.70;60.10
44843;DHT22;31884;52.538;13.820;2023-03-26T19:56:13;7.60;60.80
44843;DHT22;31884;52.538;13.820;2023-03-26T19:58:41;7.50;60.20
44843;DHT22;31884;52.538;13.820;2023-03-26T20:01:14;7.40;61.00
44843;DHT22;31884;52.538;13.820;2023-03-26T20:03:44;7.40;61.90
44843;DHT22;31884;52.538;13.820;2023-03-26T20:06:12;7.20;60.70
44843;DHT22;31884;52.538;13.820;2023-03-26T20:08:38;7.10;61.50
44843;DHT22;31884;52.538;13.820;2023-03-26T20:11:08;7.10;62.60
44843;DHT22;31884;52.538;13.820;2023-03-26T20:13:36;7.00;63.00
44843;DHT22;31884;52.538;13.820;2023-03-26T20:16:22;6.90;63.00
44843;DHT22;31884;52.538;13.820;2023-03-26T20:18:48;6.90;64.10